createdAt,value
2023-03-01T00:01:10.232Z,95193.40
2023-03-01T00:03:37.726Z,95202.20
2023-03-01T00:06:05.348Z,95203.80
2023-03-01T00:08:33.817Z,95204.20
2023-03-01T00:11:01.416Z,95198.00
2023-03-01T00:13:29.062Z,95193.40
2023-03-01T00:15:56.516Z,95196.20
2023-03-01T00:18:23.960Z,95192.60
2023-03-01T00:20:52.231Z,95200.20
2023-03-01T00:23:19.688Z,95202.00
2023-03-01T00:25:47.256Z,95204.60
2023-03-01T00:28:14.777Z,95209.20
2023-03-01T00:30:42.269Z,95208.20
2023-03-01T00:33:09.758Z,95200.00
2023-03-01T00:35:37.254Z,95204.60
2023-03-01T00:38:04.936Z,95204.60
2023-03-01T00:40:32.463Z,95201.80
2023-03-01T00:42:59.968Z,95201.60
2023-03-01T00:45:28.000Z,95196.80
2023-03-01T00:47:55.586Z,95195.40
2023-03-01T00:50:23.142Z,95195.00
2023-03-01T00:52:50.613Z,95194.80
2023-03-01T00:55:18.135Z,95191.40
2023-03-01T00:57:45.647Z,95184.00
2023-03-01T01:00:13.115Z,95184.40
2023-03-01T01:02:40.569Z,95176.60
2023-03-01T01:05:08.344Z,95178.60
2023-03-01T01:07:35.823Z,95181.40
2023-03-01T01:10:03.371Z,95184.40
2023-03-01T01:12:30.926Z,95184.20
2023-03-01T01:14:58.379Z,95185.80
2023-03-01T01:17:25.921Z,95187.40
2023-03-01T01:19:53.392Z,95186.60
2023-03-01T01:22:20.816Z,95186.40
2023-03-01T01:24:48.261Z,95189.00
2023-03-01T01:27:15.942Z,95192.40
2023-03-01T01:29:43.546Z,95186.40
2023-03-01T01:32:11.050Z,95192.20
2023-03-01T01:34:38.630Z,95187.40
2023-03-01T01:37:08.808Z,95180.00
2023-03-01T01:39:36.499Z,95179.60
2023-03-01T01:42:03.996Z,95182.40
2023-03-01T01:44:31.546Z,95183.80
2023-03-01T01:46:59.024Z,95180.00
2023-03-01T01:49:26.643Z,95187.20
2023-03-01T01:51:54.180Z,95189.40
2023-03-01T01:54:21.680Z,95193.80
2023-03-01T01:56:49.184Z,95198.80
2023-03-01T01:59:16.784Z,95190.60
2023-03-01T02:01:44.225Z,95183.80
2023-03-01T02:04:11.835Z,95179.20
2023-03-01T02:06:39.266Z,95181.80
2023-03-01T02:09:06.748Z,95184.00
2023-03-01T02:11:34.701Z,95188.40
2023-03-01T02:14:02.360Z,95190.40
2023-03-01T02:16:30.362Z,95182.00
2023-03-01T02:18:58.110Z,95174.20
2023-03-01T02:21:25.543Z,95170.20
2023-03-01T02:23:53.008Z,95172.20
2023-03-01T02:26:20.545Z,95179.60
2023-03-01T02:28:48.596Z,95178.80
2023-03-01T02:31:54.859Z,95176.00
2023-03-01T02:34:22.327Z,95173.00
2023-03-01T02:36:49.780Z,95171.80
2023-03-01T02:39:20.044Z,95175.60
2023-03-01T02:41:47.980Z,95168.40
2023-03-01T02:44:15.429Z,95164.80
2023-03-01T02:46:43.189Z,95163.00
2023-03-01T02:49:10.649Z,95161.20
2023-03-01T02:51:38.083Z,95161.80
2023-03-01T02:54:05.741Z,95157.20
2023-03-01T02:56:33.166Z,95152.00
2023-03-01T02:59:01.685Z,95157.20
2023-03-01T03:01:38.525Z,95161.00
2023-03-01T03:04:06.052Z,95159.80
2023-03-01T03:06:33.755Z,95156.40
2023-03-01T03:09:01.302Z,95156.00
2023-03-01T03:11:28.798Z,95154.20
2023-03-01T03:13:56.980Z,95150.60
2023-03-01T03:16:24.678Z,95155.60
2023-03-01T03:18:52.207Z,95151.80
2023-03-01T03:21:19.680Z,95154.80
2023-03-01T03:23:47.241Z,95156.60
2023-03-01T03:26:15.987Z,95149.20
2023-03-01T03:28:43.430Z,95145.00
2023-03-01T03:31:10.946Z,95143.40
2023-03-01T03:33:38.539Z,95132.40
2023-03-01T03:36:06.045Z,95138.60
2023-03-01T03:38:33.562Z,95144.80
2023-03-01T03:41:04.049Z,95140.80
2023-03-01T03:43:31.674Z,95139.00
2023-03-01T03:45:59.305Z,95136.60
2023-03-01T03:48:26.855Z,95138.60
2023-03-01T03:50:54.401Z,95136.60
2023-03-01T03:53:22.076Z,95138.40
2023-03-01T03:55:52.769Z,95132.60
2023-03-01T03:58:20.884Z,95133.40
2023-03-01T04:00:48.543Z,95132.40
2023-03-01T04:03:16.569Z,95131.60
2023-03-01T04:05:44.008Z,95132.20
2023-03-01T04:08:11.477Z,95128.60
2023-03-01T04:10:38.976Z,95122.20
2023-03-01T04:13:06.831Z,95118.40
2023-03-01T04:15:34.391Z,95121.40
2023-03-01T04:18:01.893Z,95116.40
2023-03-01T04:20:29.442Z,95116.80
2023-03-01T04:22:56.961Z,95120.20
2023-03-01T04:25:24.454Z,95114.00
2023-03-01T04:27:51.915Z,95115.80
2023-03-01T04:30:19.386Z,95112.80
2023-03-01T04:32:46.827Z,95108.00
2023-03-01T04:35:14.271Z,95108.80
2023-03-01T04:37:42.717Z,95103.60
2023-03-01T04:40:17.299Z,95106.00
2023-03-01T04:42:44.869Z,95105.00
2023-03-01T04:45:14.213Z,95104.20
2023-03-01T04:47:41.787Z,95103.40
2023-03-01T04:50:09.380Z,95104.20
2023-03-01T04:52:36.854Z,95105.60
2023-03-01T04:55:04.542Z,95107.40
2023-03-01T04:57:32.090Z,95109.60
2023-03-01T04:59:59.715Z,95118.20
2023-03-01T05:02:27.223Z,95112.60
2023-03-01T05:04:58.612Z,95114.20
2023-03-01T05:07:27.322Z,95118.00
2023-03-01T05:09:55.440Z,95122.00
2023-03-01T05:12:22.996Z,95125.80
2023-03-01T05:14:52.360Z,95137.00
2023-03-01T05:17:19.805Z,95136.00
2023-03-01T05:19:47.319Z,95134.80
2023-03-01T05:22:14.796Z,95131.60
2023-03-01T05:24:42.246Z,95131.80
2023-03-01T05:27:10.170Z,95127.60
2023-03-01T05:29:37.609Z,95123.40
2023-03-01T05:32:05.213Z,95118.00
2023-03-01T05:34:32.748Z,95116.60
2023-03-01T05:37:00.216Z,95113.80
2023-03-01T05:39:27.708Z,95123.20
2023-03-01T05:41:55.268Z,95129.20
2023-03-01T05:44:22.749Z,95133.60
2023-03-01T05:46:50.498Z,95137.00
2023-03-01T05:49:18.022Z,95138.00
2023-03-01T05:51:45.457Z,95139.20
2023-03-01T05:54:12.960Z,95128.80
2023-03-01T05:56:40.865Z,95131.80
2023-03-01T05:59:08.297Z,95140.60
2023-03-01T06:01:35.802Z,95143.20
2023-03-01T06:04:03.474Z,95142.20
2023-03-01T06:06:31.368Z,95137.20
2023-03-01T06:08:59.360Z,95135.00
2023-03-01T06:11:27.090Z,95129.20
2023-03-01T06:13:54.548Z,95132.60
2023-03-01T06:16:22.001Z,95128.00
2023-03-01T06:18:49.484Z,95123.80
2023-03-01T06:21:16.975Z,95132.20
2023-03-01T06:23:44.438Z,95136.60
2023-03-01T06:26:11.930Z,95149.00
2023-03-01T06:28:39.400Z,95155.60
2023-03-01T06:31:09.833Z,95146.60
2023-03-01T06:33:37.571Z,95147.60
2023-03-01T06:36:05.290Z,95154.60
2023-03-01T06:38:32.868Z,95155.80
2023-03-01T06:41:00.554Z,95157.80
2023-03-01T06:43:28.011Z,95155.40
2023-03-01T06:45:55.454Z,95143.80
2023-03-01T06:48:23.166Z,95141.80
2023-03-01T06:50:50.730Z,95140.20
2023-03-01T06:53:18.318Z,95139.60
2023-03-01T06:55:46.120Z,95136.40
2023-03-01T06:58:14.618Z,95135.20
2023-03-01T07:00:44.026Z,95126.60
2023-03-01T07:03:11.566Z,95132.40
2023-03-01T07:05:39.094Z,95132.20
2023-03-01T07:08:06.570Z,95141.80
2023-03-01T07:10:34.107Z,95137.60
2023-03-01T07:13:01.834Z,95131.40
2023-03-01T07:15:29.321Z,95124.80
2023-03-01T07:17:56.819Z,95130.40
2023-03-01T07:20:26.195Z,95127.20
2023-03-01T07:22:53.792Z,95121.40
2023-03-01T07:25:21.382Z,95123.40
2023-03-01T07:27:48.898Z,95126.80
2023-03-01T07:30:16.368Z,95124.40
2023-03-01T07:32:43.977Z,95117.40
2023-03-01T07:35:11.631Z,95108.40
2023-03-01T07:37:39.081Z,95107.80
2023-03-01T07:40:06.788Z,95111.60
2023-03-01T07:42:34.284Z,95104.40
2023-03-01T07:45:01.797Z,95110.60
2023-03-01T07:47:29.413Z,95109.00
2023-03-01T07:49:56.979Z,95112.00
2023-03-01T07:52:24.444Z,95104.20
2023-03-01T07:54:51.982Z,95098.20
2023-03-01T07:57:19.806Z,95096.80
2023-03-01T07:59:47.415Z,95091.80
2023-03-01T08:02:16.139Z,95097.20
2023-03-01T08:04:43.887Z,95099.60
2023-03-01T08:07:11.351Z,95095.60
2023-03-01T08:09:39.272Z,95090.00
2023-03-01T08:12:06.770Z,95090.00
2023-03-01T08:14:34.242Z,95088.60
2023-03-01T08:17:04.016Z,95089.80
2023-03-01T08:19:31.646Z,95088.80
2023-03-01T08:22:00.773Z,95082.20
2023-03-01T08:24:28.395Z,95081.20
2023-03-01T08:26:55.996Z,95076.20
2023-03-01T08:29:23.476Z,95074.40
2023-03-01T08:31:51.105Z,95073.40
2023-03-01T08:34:18.632Z,95065.60
2023-03-01T08:36:46.085Z,95060.80
2023-03-01T08:39:13.631Z,95055.60
2023-03-01T08:41:41.250Z,95051.20
2023-03-01T08:44:08.704Z,95034.80
2023-03-01T08:46:37.049Z,95032.00
2023-03-01T08:49:04.522Z,95024.00
2023-03-01T08:51:37.501Z,95026.60
2023-03-01T08:54:04.928Z,95025.60
2023-03-01T08:56:32.661Z,95022.60
2023-03-01T08:59:00.522Z,95022.80
2023-03-01T09:01:28.097Z,95021.20
2023-03-01T09:03:55.585Z,95031.20
2023-03-01T09:06:23.121Z,95031.60
2023-03-01T09:08:50.607Z,95033.80
2023-03-01T09:11:18.255Z,95039.00
2023-03-01T09:13:46.081Z,95032.40
2023-03-01T09:16:14.093Z,95031.20
2023-03-01T09:18:41.699Z,95033.20
2023-03-01T09:21:09.313Z,95026.80
2023-03-01T09:23:40.145Z,95022.60
2023-03-01T09:26:07.660Z,95021.80
2023-03-01T09:28:35.150Z,95019.80
2023-03-01T09:31:05.746Z,95017.60
2023-03-01T09:33:33.328Z,95021.00
2023-03-01T09:36:01.011Z,95014.40
2023-03-01T09:38:28.661Z,95016.00
2023-03-01T09:40:56.229Z,95006.00
2023-03-01T09:43:23.750Z,95005.20
2023-03-01T09:45:51.233Z,94992.40
2023-03-01T09:48:18.880Z,94987.00
2023-03-01T09:50:47.811Z,94988.60
2023-03-01T09:53:15.339Z,94983.60
2023-03-01T09:55:42.855Z,94982.00
2023-03-01T09:58:10.474Z,94984.00
2023-03-01T10:00:37.979Z,94981.00
2023-03-01T10:03:05.478Z,94982.40
2023-03-01T10:05:33.212Z,94983.80
2023-03-01T10:08:00.669Z,94981.00
2023-03-01T10:10:28.391Z,94986.80
2023-03-01T10:12:56.158Z,94987.20
2023-03-01T10:15:23.797Z,94987.40
2023-03-01T10:17:51.277Z,94986.20
2023-03-01T10:20:19.034Z,94983.20
2023-03-01T10:22:51.482Z,94982.80
2023-03-01T10:25:19.887Z,94985.00
2023-03-01T10:27:47.694Z,94980.60
2023-03-01T10:30:17.184Z,94981.60
2023-03-01T10:32:44.745Z,94982.60
2023-03-01T10:35:12.293Z,94983.00
2023-03-01T10:37:40.647Z,94979.40
2023-03-01T10:40:09.281Z,94977.80
2023-03-01T10:42:37.655Z,94976.80
2023-03-01T10:45:05.200Z,94972.40
2023-03-01T10:47:32.805Z,94970.40
2023-03-01T10:50:00.497Z,94965.60
2023-03-01T10:52:28.289Z,94961.00
2023-03-01T10:54:55.990Z,94961.00
2023-03-01T10:57:23.451Z,94963.60
2023-03-01T10:59:51.496Z,94966.60
2023-03-01T11:02:25.067Z,94966.80
2023-03-01T11:04:53.376Z,94963.40
2023-03-01T11:07:20.882Z,94956.40
2023-03-01T11:09:48.495Z,94951.20
2023-03-01T11:12:16.416Z,94950.80
2023-03-01T11:14:44.138Z,94938.60
2023-03-01T11:17:11.611Z,94935.80
2023-03-01T11:19:39.230Z,94932.80
2023-03-01T11:22:06.952Z,94935.00
2023-03-01T11:24:34.451Z,94936.00
2023-03-01T11:27:04.727Z,94934.60
2023-03-01T11:29:40.045Z,94930.80
2023-03-01T11:32:14.440Z,94928.00
2023-03-01T11:34:42.169Z,94921.20
2023-03-01T11:37:09.720Z,94922.80
2023-03-01T11:39:37.171Z,94920.80
2023-03-01T11:42:18.013Z,94924.00
2023-03-01T11:44:46.695Z,94917.00
2023-03-01T11:47:14.469Z,94917.20
2023-03-01T11:49:42.010Z,94916.80
2023-03-01T11:52:09.568Z,94916.00
2023-03-01T11:54:37.108Z,94909.00
2023-03-01T11:57:04.843Z,94913.00
2023-03-01T11:59:32.391Z,94910.20
2023-03-01T12:01:59.965Z,94903.60
2023-03-01T12:04:27.491Z,94900.40
2023-03-01T12:06:56.715Z,94894.80
2023-03-01T12:09:25.086Z,94895.40
2023-03-01T12:11:52.592Z,94889.60
2023-03-01T12:14:20.036Z,94888.00
2023-03-01T12:16:48.732Z,94884.00
2023-03-01T12:19:16.294Z,94883.60
2023-03-01T12:21:43.738Z,94879.60
2023-03-01T12:24:11.268Z,94879.80
2023-03-01T12:26:38.741Z,94877.00
2023-03-01T12:29:06.378Z,94872.00
2023-03-01T12:31:34.300Z,94870.80
2023-03-01T12:34:02.250Z,94870.60
2023-03-01T12:36:30.235Z,94869.00
2023-03-01T12:38:57.978Z,94865.20
2023-03-01T12:41:25.724Z,94861.20
2023-03-01T12:43:53.223Z,94859.60
2023-03-01T12:46:20.704Z,94854.80
2023-03-01T12:48:48.204Z,94853.40
2023-03-01T12:51:15.696Z,94846.00
2023-03-01T12:53:43.231Z,94847.40
2023-03-01T12:56:10.931Z,94840.80
2023-03-01T12:58:49.128Z,94835.00
2023-03-01T13:01:17.685Z,94837.80
2023-03-01T13:03:45.305Z,94837.00
2023-03-01T13:06:12.832Z,94842.40
2023-03-01T13:08:40.402Z,94836.60
2023-03-01T13:11:07.952Z,94834.60
2023-03-01T13:13:35.531Z,94833.40
2023-03-01T13:16:03.116Z,94831.20
2023-03-01T13:18:30.828Z,94829.00
2023-03-01T13:20:58.598Z,94823.00
2023-03-01T13:23:26.151Z,94828.20
2023-03-01T13:25:53.589Z,94829.60
2023-03-01T13:28:21.025Z,94829.00
2023-03-01T13:30:48.756Z,94833.80
2023-03-01T13:33:16.277Z,94834.40
2023-03-01T13:35:43.835Z,94828.80
2023-03-01T13:38:11.494Z,94823.40
2023-03-01T13:40:38.946Z,94822.60
2023-03-01T13:43:06.541Z,94819.00
2023-03-01T13:45:34.438Z,94818.20
2023-03-01T13:48:05.832Z,94817.00
2023-03-01T13:50:33.626Z,94813.40
2023-03-01T13:53:01.143Z,94811.40
2023-03-01T13:55:28.663Z,94812.60
2023-03-01T13:57:56.355Z,94813.20
2023-03-01T14:00:24.420Z,94815.80
2023-03-01T14:02:56.063Z,94817.80
2023-03-01T14:05:29.965Z,94812.60
2023-03-01T14:07:57.465Z,94810.60
2023-03-01T14:10:24.997Z,94808.80
2023-03-01T14:12:52.572Z,94806.40
2023-03-01T14:15:20.317Z,94810.20
2023-03-01T14:17:47.777Z,94809.60
2023-03-01T14:20:15.429Z,94805.80
2023-03-01T14:22:43.603Z,94808.00
2023-03-01T14:25:11.033Z,94800.20
2023-03-01T14:27:40.600Z,94799.60
2023-03-01T14:30:08.093Z,94802.60
2023-03-01T14:32:35.683Z,94800.40
2023-03-01T14:35:03.286Z,94797.00
2023-03-01T14:37:30.998Z,94795.60
2023-03-01T14:39:58.566Z,94798.80
2023-03-01T14:42:27.012Z,94796.20
2023-03-01T14:44:54.486Z,94802.80
2023-03-01T14:47:23.801Z,94803.80
2023-03-01T14:49:51.455Z,94803.20
2023-03-01T14:52:19.380Z,94799.20
2023-03-01T14:54:46.900Z,94795.80
2023-03-01T14:57:14.526Z,94797.80
2023-03-01T14:59:45.152Z,94799.60
2023-03-01T15:02:12.621Z,94796.20
2023-03-01T15:04:40.270Z,94799.80
2023-03-01T15:07:07.710Z,94801.80
2023-03-01T15:09:35.205Z,94806.80
2023-03-01T15:12:02.711Z,94808.20
2023-03-01T15:14:30.342Z,94817.40
2023-03-01T15:16:57.842Z,94816.40
2023-03-01T15:19:28.234Z,94813.60
2023-03-01T15:21:55.952Z,94816.80
2023-03-01T15:24:23.445Z,94816.00
2023-03-01T15:26:52.045Z,94813.60
2023-03-01T15:29:19.608Z,94815.60
2023-03-01T15:31:47.046Z,94817.40
2023-03-01T15:34:14.615Z,94820.60
2023-03-01T15:36:42.332Z,94823.20
2023-03-01T15:39:09.916Z,94825.60
2023-03-01T15:41:37.486Z,94820.20
2023-03-01T15:44:05.262Z,94815.40
2023-03-01T15:46:33.669Z,94819.00
2023-03-01T15:49:01.594Z,94821.00
2023-03-01T15:51:29.840Z,94818.60
2023-03-01T15:53:58.939Z,94825.00
2023-03-01T15:56:26.486Z,94821.00
2023-03-01T15:58:54.002Z,94826.20
2023-03-01T16:01:22.036Z,94827.20
2023-03-01T16:03:49.688Z,94826.20
2023-03-01T16:06:17.205Z,94828.20
2023-03-01T16:08:44.679Z,94826.20
2023-03-01T16:11:12.246Z,94827.20
2023-03-01T16:13:39.838Z,94823.20
2023-03-01T16:16:08.551Z,94825.80
2023-03-01T16:18:36.188Z,94828.60
2023-03-01T16:21:03.713Z,94827.40
2023-03-01T16:23:31.315Z,94828.80
2023-03-01T16:25:58.887Z,94828.20
2023-03-01T16:28:29.252Z,94825.40
2023-03-01T16:30:56.942Z,94827.40
2023-03-01T16:33:31.862Z,94824.20
2023-03-01T16:36:03.145Z,94833.20
2023-03-01T16:38:30.820Z,94838.00
2023-03-01T16:40:58.362Z,94841.40
2023-03-01T16:43:26.127Z,94841.80
2023-03-01T16:45:54.066Z,94835.60
2023-03-01T16:48:21.848Z,94830.60
2023-03-01T16:50:49.302Z,94834.20
2023-03-01T16:53:16.800Z,94837.40
2023-03-01T16:55:46.447Z,94836.40
2023-03-01T16:58:16.422Z,94836.20
2023-03-01T17:00:43.952Z,94837.80
2023-03-01T17:03:12.037Z,94841.20
2023-03-01T17:05:39.606Z,94842.00
2023-03-01T17:08:08.970Z,94847.40
2023-03-01T17:10:36.603Z,94849.20
2023-03-01T17:13:04.680Z,94856.80
2023-03-01T17:15:32.263Z,94863.00
2023-03-01T17:17:59.800Z,94862.60
2023-03-01T17:20:27.277Z,94871.80
2023-03-01T17:22:54.854Z,94874.60
2023-03-01T17:25:22.613Z,94877.40
2023-03-01T17:27:50.307Z,94881.20
2023-03-01T17:30:18.014Z,94874.80
2023-03-01T17:32:45.633Z,94874.00
2023-03-01T17:35:13.230Z,94868.00
2023-03-01T17:37:46.475Z,94871.00
2023-03-01T17:40:14.390Z,94872.00
2023-03-01T17:42:42.068Z,94879.20
2023-03-01T17:45:09.858Z,94877.60
2023-03-01T17:47:37.883Z,94875.00
2023-03-01T17:50:06.465Z,94873.80
2023-03-01T17:52:34.069Z,94875.80
2023-03-01T17:55:01.640Z,94875.80
2023-03-01T17:57:29.188Z,94881.00
2023-03-01T17:59:57.000Z,94878.20
2023-03-01T18:02:26.519Z,94876.60
2023-03-01T18:04:55.577Z,94880.20
2023-03-01T18:07:23.455Z,94885.00
2023-03-01T18:09:51.323Z,94885.40
2023-03-01T18:12:19.063Z,94886.20
2023-03-01T18:14:48.404Z,94883.20
2023-03-01T18:17:16.178Z,94884.40
2023-03-01T18:19:44.363Z,94885.00
2023-03-01T18:22:12.159Z,94884.40
2023-03-01T18:24:39.758Z,94888.80
2023-03-01T18:27:10.386Z,94890.40
2023-03-01T18:29:38.117Z,94888.40
2023-03-01T18:32:05.756Z,94888.00
2023-03-01T18:34:35.392Z,94891.00
2023-03-01T18:37:10.434Z,94891.20
2023-03-01T18:39:38.924Z,94884.00
2023-03-01T18:42:08.114Z,94878.40
2023-03-01T18:44:36.681Z,94884.00
2023-03-01T18:47:04.178Z,94878.60
2023-03-01T18:49:33.070Z,94881.00
2023-03-01T18:52:00.846Z,94880.40
2023-03-01T18:54:28.431Z,94885.00
2023-03-01T18:56:56.524Z,94887.60
2023-03-01T18:59:24.272Z,94891.40
2023-03-01T19:01:51.874Z,94892.20
2023-03-01T19:04:19.498Z,94892.00
2023-03-01T19:06:47.091Z,94893.80
2023-03-01T19:09:15.659Z,94890.80
2023-03-01T19:11:43.215Z,94889.20
2023-03-01T19:14:13.047Z,94892.20
2023-03-01T19:16:40.683Z,94891.40
2023-03-01T19:19:10.277Z,94891.00
2023-03-01T19:21:38.062Z,94884.20
2023-03-01T19:24:08.530Z,94879.60
2023-03-01T19:26:36.542Z,94876.40
2023-03-01T19:29:06.309Z,94878.00
2023-03-01T19:31:35.298Z,94878.20
2023-03-01T19:34:10.999Z,94874.20
2023-03-01T19:36:39.179Z,94873.60
2023-03-01T19:39:06.757Z,94877.60
2023-03-01T19:41:34.581Z,94876.60
2023-03-01T19:44:06.131Z,94877.80
2023-03-01T19:46:35.874Z,94883.80
2023-03-01T19:49:03.745Z,94888.00
2023-03-01T19:51:33.581Z,94878.80
2023-03-01T19:54:02.010Z,94877.40
2023-03-01T19:56:30.248Z,94880.60
2023-03-01T19:59:01.319Z,94886.20
2023-03-01T20:01:29.891Z,94881.00
2023-03-01T20:03:58.013Z,94883.80
2023-03-01T20:06:25.854Z,94886.00
2023-03-01T20:08:56.525Z,94888.80
2023-03-01T20:11:24.742Z,94893.40
2023-03-01T20:13:52.914Z,94894.40
2023-03-01T20:16:21.078Z,94897.60
2023-03-01T20:18:48.804Z,94896.60
2023-03-01T20:21:24.179Z,94898.20
2023-03-01T20:23:53.841Z,94899.40
2023-03-01T20:26:21.484Z,94896.00
2023-03-01T20:28:49.146Z,94913.20
2023-03-01T20:31:17.174Z,94906.60
2023-03-01T20:33:44.901Z,94906.00
2023-03-01T20:36:12.787Z,94906.40
2023-03-01T20:38:40.735Z,94899.20
2023-03-01T20:41:08.255Z,94896.20
2023-03-01T20:43:35.885Z,94889.00
2023-03-01T20:46:03.575Z,94882.60
2023-03-01T20:48:31.217Z,94882.60
2023-03-01T20:51:01.733Z,94882.00
2023-03-01T20:53:30.878Z,94882.20
2023-03-01T20:55:59.083Z,94887.60
2023-03-01T20:58:26.647Z,94883.60
2023-03-01T21:00:55.478Z,94884.20
2023-03-01T21:03:23.001Z,94884.80
2023-03-01T21:05:50.538Z,94883.80
2023-03-01T21:08:18.146Z,94883.20
2023-03-01T21:10:45.630Z,94879.80
2023-03-01T21:13:13.205Z,94880.80
2023-03-01T21:15:41.428Z,94881.80
2023-03-01T21:18:09.516Z,94881.80
2023-03-01T21:20:42.684Z,94883.00
2023-03-01T21:23:10.202Z,94881.00
2023-03-01T21:25:37.696Z,94890.40
2023-03-01T21:28:05.207Z,94889.40
2023-03-01T21:30:32.688Z,94894.20
2023-03-01T21:33:00.382Z,94894.60
2023-03-01T21:35:27.921Z,94896.20
2023-03-01T21:37:55.502Z,94899.20
2023-03-01T21:40:22.989Z,94902.40
2023-03-01T21:42:50.545Z,94901.20
2023-03-01T21:45:17.993Z,94898.60
2023-03-01T21:47:45.663Z,94896.40
2023-03-01T21:50:13.247Z,94897.00
2023-03-01T21:52:41.321Z,94893.80
2023-03-01T21:55:09.212Z,94886.20
2023-03-01T21:57:43.680Z,94879.60
2023-03-01T22:00:12.951Z,94884.40
2023-03-01T22:02:40.515Z,94882.80
2023-03-01T22:05:08.177Z,94885.60
2023-03-01T22:07:35.894Z,94889.40
2023-03-01T22:10:03.514Z,94891.80
2023-03-01T22:12:31.129Z,94896.40
2023-03-01T22:14:59.222Z,94897.00
2023-03-01T22:17:26.766Z,94896.60
2023-03-01T22:19:54.318Z,94896.00
2023-03-01T22:22:21.856Z,94899.00
2023-03-01T22:24:49.538Z,94902.00
2023-03-01T22:27:17.055Z,94904.00
2023-03-01T22:29:44.512Z,94900.00
2023-03-01T22:32:12.282Z,94902.20
2023-03-01T22:34:40.081Z,94897.20
2023-03-01T22:37:07.576Z,94891.60
2023-03-01T22:39:35.014Z,94894.60
2023-03-01T22:42:02.687Z,94896.40
2023-03-01T22:44:30.162Z,94894.60
2023-03-01T22:46:57.639Z,94897.20
2023-03-01T22:49:25.295Z,94896.20
2023-03-01T22:51:53.314Z,94895.40
2023-03-01T22:54:20.886Z,94892.60
2023-03-01T22:56:48.469Z,94892.00
2023-03-01T22:59:16.005Z,94890.60
2023-03-01T23:01:46.374Z,94889.80
2023-03-01T23:04:14.805Z,94890.40
2023-03-01T23:06:53.673Z,94890.00
2023-03-01T23:09:21.461Z,94889.40
2023-03-01T23:11:48.988Z,94887.20
2023-03-01T23:14:16.811Z,94887.00
2023-03-01T23:16:44.356Z,94885.00
2023-03-01T23:19:11.896Z,94890.40
2023-03-01T23:21:44.244Z,94885.80
2023-03-01T23:24:11.825Z,94886.80
2023-03-01T23:26:40.414Z,94881.80
2023-03-01T23:29:07.916Z,94880.80
2023-03-01T23:31:35.420Z,94884.00
2023-03-01T23:34:03.034Z,94884.60
2023-03-01T23:36:31.374Z,94881.60
2023-03-01T23:38:59.102Z,94885.20
2023-03-01T23:41:26.631Z,94881.40
2023-03-01T23:43:54.190Z,94884.20
2023-03-01T23:46:22.046Z,94884.20
2023-03-01T23:48:49.611Z,94879.40
2023-03-01T23:51:17.751Z,94879.60
2023-03-01T23:53:54.318Z,94880.20
2023-03-01T23:56:26.158Z,94873.60
2023-03-01T23:58:53.710Z,94874.00
